sensor_id;sensor_type;location;lat;lon;timestamp;P1;durP1;ratioP1;P2;durP2;ratioP2
64500;SDS011;50874;24.150;-110.320;2022-08-03T00:01:48;8.80;;;2.63;;
64500;SDS011;50874;24.150;-110.320;2022-08-03T00:04:15;17.23;;;3.70;;
64500;SDS011;50874;24.150;-110.320;2022-08-03T00:06:41;15.02;;;3.15;;
64500;SDS011;50874;24.150;-110.320;2022-08-03T00:09:08;17.50;;;3.63;;
64500;SDS011;50874;24.150;-110.320;2022-08-03T00:11:35;18.58;;;3.38;;
64500;SDS011;50874;24.150;-110.320;2022-08-03T00:14:02;13.50;;;3.00;;
64500;SDS011;50874;24.150;-110.320;2022-08-03T00:16:29;13.30;;;2.90;;
64500;SDS011;50874;24.150;-110.320;2022-08-03T00:18:56;22.20;;;3.88;;
64500;SDS011;50874;24.150;-110.320;2022-08-03T00:21:23;12.25;;;3.20;;
64500;SDS011;50874;24.150;-110.320;2022-08-03T00:23:49;9.20;;;2.40;;
64500;SDS011;50874;24.150;-110.320;2022-08-03T00:26:15;11.25;;;2.58;;
64500;SDS011;50874;24.150;-110.320;2022-08-03T00:28:42;15.25;;;3.38;;
64500;SDS011;50874;24.150;-110.320;2022-08-03T00:31:08;17.65;;;3.25;;
64500;SDS011;50874;24.150;-110.320;2022-08-03T00:33:35;18.48;;;3.63;;
64500;SDS011;50874;24.150;-110.320;2022-08-03T00:36:01;17.40;;;3.38;;
64500;SDS011;50874;24.150;-110.320;2022-08-03T00:38:28;15.27;;;3.20;;
64500;SDS011;50874;24.150;-110.320;2022-08-03T00:40:54;10.57;;;3.00;;
64500;SDS011;50874;24.150;-110.320;2022-08-03T00:43:23;16.25;;;3.03;;
64500;SDS011;50874;24.150;-110.320;2022-08-03T00:45:52;14.82;;;2.85;;
64500;SDS011;50874;24.150;-110.320;2022-08-03T00:48:19;14.13;;;3.13;;
64500;SDS011;50874;24.150;-110.320;2022-08-03T00:50:46;25.88;;;3.45;;
64500;SDS011;50874;24.150;-110.320;2022-08-03T00:53:12;19.83;;;4.10;;
64500;SDS011;50874;24.150;-110.320;2022-08-03T00:55:39;15.50;;;3.25;;
64500;SDS011;50874;24.150;-110.320;2022-08-03T00:58:07;15.35;;;2.25;;
64500;SDS011;50874;24.150;-110.320;2022-08-03T01:00:36;10.70;;;2.03;;
64500;SDS011;50874;24.150;-110.320;2022-08-03T01:03:04;7.75;;;1.80;;
64500;SDS011;50874;24.150;-110.320;2022-08-03T01:05:38;19.58;;;2.80;;
64500;SDS011;50874;24.150;-110.320;2022-08-03T01:08:47;10.25;;;2.15;;
64500;SDS011;50874;24.150;-110.320;2022-08-03T01:14:07;10.27;;;2.30;;
64500;SDS011;50874;24.150;-110.320;2022-08-03T01:22:17;7.72;;;2.25;;
64500;SDS011;50874;24.150;-110.320;2022-08-03T01:28:00;19.20;;;3.22;;
64500;SDS011;50874;24.150;-110.320;2022-08-03T01:30:26;18.48;;;2.55;;
64500;SDS011;50874;24.150;-110.320;2022-08-03T01:33:05;20.15;;;2.60;;
64500;SDS011;50874;24.150;-110.320;2022-08-03T01:38:26;8.90;;;2.28;;
64500;SDS011;50874;24.150;-110.320;2022-08-03T01:40:58;10.50;;;2.37;;
64500;SDS011;50874;24.150;-110.320;2022-08-03T01:43:31;12.25;;;3.05;;
64500;SDS011;50874;24.150;-110.320;2022-08-03T01:46:00;15.15;;;3.38;;
64500;SDS011;50874;24.150;-110.320;2022-08-03T01:48:27;9.38;;;2.72;;
64500;SDS011;50874;24.150;-110.320;2022-08-03T01:50:55;13.38;;;2.17;;
64500;SDS011;50874;24.150;-110.320;2022-08-03T01:53:23;22.52;;;4.00;;
64500;SDS011;50874;24.150;-110.320;2022-08-03T01:55:51;20.73;;;3.75;;
64500;SDS011;50874;24.150;-110.320;2022-08-03T01:58:20;30.50;;;5.30;;
64500;SDS011;50874;24.150;-110.320;2022-08-03T02:00:49;39.60;;;5.43;;
64500;SDS011;50874;24.150;-110.320;2022-08-03T02:03:16;13.60;;;3.13;;
64500;SDS011;50874;24.150;-110.320;2022-08-03T02:05:45;50.65;;;6.68;;
64500;SDS011;50874;24.150;-110.320;2022-08-03T02:08:13;14.68;;;2.90;;
64500;SDS011;50874;24.150;-110.320;2022-08-03T02:10:42;64.03;;;7.57;;
64500;SDS011;50874;24.150;-110.320;2022-08-03T02:13:11;3.75;;;1.60;;
64500;SDS011;50874;24.150;-110.320;2022-08-03T02:15:39;14.95;;;3.58;;
64500;SDS011;50874;24.150;-110.320;2022-08-03T02:18:08;5.85;;;1.70;;
64500;SDS011;50874;24.150;-110.320;2022-08-03T02:20:36;14.82;;;3.63;;
64500;SDS011;50874;24.150;-110.320;2022-08-03T02:23:04;14.48;;;3.50;;
64500;SDS011;50874;24.150;-110.320;2022-08-03T02:25:32;11.02;;;2.13;;
64500;SDS011;50874;24.150;-110.320;2022-08-03T02:28:09;7.90;;;2.53;;
64500;SDS011;50874;24.150;-110.320;2022-08-03T02:30:39;9.20;;;2.00;;
64500;SDS011;50874;24.150;-110.320;2022-08-03T02:33:11;5.13;;;2.05;;
64500;SDS011;50874;24.150;-110.320;2022-08-03T02:35:43;12.30;;;3.38;;
64500;SDS011;50874;24.150;-110.320;2022-08-03T02:38:11;7.60;;;2.10;;
64500;SDS011;50874;24.150;-110.320;2022-08-03T02:40:39;6.68;;;2.35;;
64500;SDS011;50874;24.150;-110.320;2022-08-03T02:43:09;21.02;;;3.55;;
64500;SDS011;50874;24.150;-110.320;2022-08-03T02:45:42;6.82;;;1.83;;
64500;SDS011;50874;24.150;-110.320;2022-08-03T02:48:11;34.35;;;6.30;;
64500;SDS011;50874;24.150;-110.320;2022-08-03T02:50:42;37.00;;;5.75;;
64500;SDS011;50874;24.150;-110.320;2022-08-03T02:53:10;52.03;;;6.70;;
64500;SDS011;50874;24.150;-110.320;2022-08-03T02:55:38;14.95;;;2.65;;
64500;SDS011;50874;24.150;-110.320;2022-08-03T02:58:06;17.80;;;3.55;;
64500;SDS011;50874;24.150;-110.320;2022-08-03T03:00:34;27.98;;;4.97;;
64500;SDS011;50874;24.150;-110.320;2022-08-03T03:03:02;43.92;;;7.32;;
64500;SDS011;50874;24.150;-110.320;2022-08-03T03:05:30;47.55;;;7.50;;
64500;SDS011;50874;24.150;-110.320;2022-08-03T03:07:58;13.25;;;3.17;;
64500;SDS011;50874;24.150;-110.320;2022-08-03T03:10:25;10.45;;;2.42;;
64500;SDS011;50874;24.150;-110.320;2022-08-03T03:12:55;33.33;;;4.05;;
64500;SDS011;50874;24.150;-110.320;2022-08-03T03:15:25;11.38;;;3.20;;
64500;SDS011;50874;24.150;-110.320;2022-08-03T03:17:55;11.48;;;3.00;;
64500;SDS011;50874;24.150;-110.320;2022-08-03T03:20:24;14.20;;;2.75;;
64500;SDS011;50874;24.150;-110.320;2022-08-03T03:22:51;15.00;;;3.72;;
64500;SDS011;50874;24.150;-110.320;2022-08-03T03:25:18;11.15;;;3.60;;
64500;SDS011;50874;24.150;-110.320;2022-08-03T03:27:46;18.15;;;4.10;;
64500;SDS011;50874;24.150;-110.320;2022-08-03T03:30:13;15.65;;;3.88;;
64500;SDS011;50874;24.150;-110.320;2022-08-03T03:32:39;11.68;;;3.78;;
64500;SDS011;50874;24.150;-110.320;2022-08-03T03:35:06;11.57;;;4.05;;
64500;SDS011;50874;24.150;-110.320;2022-08-03T03:37:34;11.95;;;4.32;;
64500;SDS011;50874;24.150;-110.320;2022-08-03T03:40:00;22.65;;;4.53;;
64500;SDS011;50874;24.150;-110.320;2022-08-03T03:42:28;17.75;;;5.10;;
64500;SDS011;50874;24.150;-110.320;2022-08-03T03:44:55;13.93;;;4.40;;
64500;SDS011;50874;24.150;-110.320;2022-08-03T03:47:21;17.73;;;4.90;;
64500;SDS011;50874;24.150;-110.320;2022-08-03T03:49:48;9.73;;;3.97;;
64500;SDS011;50874;24.150;-110.320;2022-08-03T03:52:15;11.32;;;3.80;;
64500;SDS011;50874;24.150;-110.320;2022-08-03T03:54:42;14.40;;;4.90;;
64500;SDS011;50874;24.150;-110.320;2022-08-03T03:57:09;13.25;;;4.18;;
64500;SDS011;50874;24.150;-110.320;2022-08-03T03:59:39;17.85;;;3.85;;
64500;SDS011;50874;24.150;-110.320;2022-08-03T04:02:07;20.90;;;4.30;;
64500;SDS011;50874;24.150;-110.320;2022-08-03T04:04:35;18.00;;;4.65;;
64500;SDS011;50874;24.150;-110.320;2022-08-03T04:07:22;7.97;;;3.70;;
64500;SDS011;50874;24.150;-110.320;2022-08-03T04:10:21;14.10;;;4.50;;
64500;SDS011;50874;24.150;-110.320;2022-08-03T04:13:09;21.85;;;4.72;;
64500;SDS011;50874;24.150;-110.320;2022-08-03T04:15:38;15.57;;;4.47;;
64500;SDS011;50874;24.150;-110.320;2022-08-03T04:18:06;11.52;;;4.13;;
64500;SDS011;50874;24.150;-110.320;2022-08-03T04:20:37;17.80;;;4.45;;
64500;SDS011;50874;24.150;-110.320;2022-08-03T04:23:09;19.40;;;4.22;;
64500;SDS011;50874;24.150;-110.320;2022-08-03T04:25:38;14.48;;;4.95;;
64500;SDS011;50874;24.150;-110.320;2022-08-03T04:28:06;18.58;;;4.95;;
64500;SDS011;50874;24.150;-110.320;2022-08-03T04:30:35;12.23;;;4.22;;
64500;SDS011;50874;24.150;-110.320;2022-08-03T04:33:03;12.95;;;4.40;;
64500;SDS011;50874;24.150;-110.320;2022-08-03T04:35:32;20.77;;;4.60;;
64500;SDS011;50874;24.150;-110.320;2022-08-03T04:38:01;11.90;;;4.70;;
64500;SDS011;50874;24.150;-110.320;2022-08-03T04:40:34;17.25;;;4.88;;
64500;SDS011;50874;24.150;-110.320;2022-08-03T04:43:04;17.50;;;5.88;;
64500;SDS011;50874;24.150;-110.320;2022-08-03T04:45:32;18.00;;;4.88;;
64500;SDS011;50874;24.150;-110.320;2022-08-03T04:47:59;15.80;;;5.72;;
64500;SDS011;50874;24.150;-110.320;2022-08-03T04:50:26;11.63;;;4.43;;
64500;SDS011;50874;24.150;-110.320;2022-08-03T04:52:53;19.52;;;5.00;;
64500;SDS011;50874;24.150;-110.320;2022-08-03T04:55:26;20.02;;;5.45;;
64500;SDS011;50874;24.150;-110.320;2022-08-03T04:57:57;15.18;;;5.78;;
64500;SDS011;50874;24.150;-110.320;2022-08-03T05:00:24;14.55;;;4.65;;
64500;SDS011;50874;24.150;-110.320;2022-08-03T05:02:51;13.02;;;4.72;;
64500;SDS011;50874;24.150;-110.320;2022-08-03T05:05:18;12.82;;;4.82;;
64500;SDS011;50874;24.150;-110.320;2022-08-03T05:07:45;17.92;;;5.78;;
64500;SDS011;50874;24.150;-110.320;2022-08-03T05:10:12;16.60;;;5.15;;
64500;SDS011;50874;24.150;-110.320;2022-08-03T05:12:39;20.00;;;5.95;;
64500;SDS011;50874;24.150;-110.320;2022-08-03T05:15:06;13.68;;;4.32;;
64500;SDS011;50874;24.150;-110.320;2022-08-03T05:17:32;13.40;;;4.65;;
64500;SDS011;50874;24.150;-110.320;2022-08-03T05:19:59;16.63;;;4.90;;
64500;SDS011;50874;24.150;-110.320;2022-08-03T05:22:28;12.52;;;4.10;;
64500;SDS011;50874;24.150;-110.320;2022-08-03T05:24:54;17.23;;;5.18;;
64500;SDS011;50874;24.150;-110.320;2022-08-03T05:27:21;14.82;;;4.85;;
64500;SDS011;50874;24.150;-110.320;2022-08-03T05:29:48;14.38;;;4.70;;
64500;SDS011;50874;24.150;-110.320;2022-08-03T05:32:15;19.25;;;5.60;;
64500;SDS011;50874;24.150;-110.320;2022-08-03T05:34:42;12.93;;;4.90;;
64500;SDS011;50874;24.150;-110.320;2022-08-03T05:37:09;21.38;;;4.93;;
64500;SDS011;50874;24.150;-110.320;2022-08-03T05:39:36;13.43;;;4.80;;
64500;SDS011;50874;24.150;-110.320;2022-08-03T05:42:02;17.45;;;5.10;;
64500;SDS011;50874;24.150;-110.320;2022-08-03T05:44:29;23.50;;;5.15;;
64500;SDS011;50874;24.150;-110.320;2022-08-03T05:46:56;16.45;;;5.43;;
64500;SDS011;50874;24.150;-110.320;2022-08-03T05:49:23;13.68;;;4.57;;
64500;SDS011;50874;24.150;-110.320;2022-08-03T05:51:50;16.45;;;5.60;;
64500;SDS011;50874;24.150;-110.320;2022-08-03T05:54:16;23.77;;;5.60;;
64500;SDS011;50874;24.150;-110.320;2022-08-03T05:56:43;21.48;;;5.22;;
64500;SDS011;50874;24.150;-110.320;2022-08-03T05:59:09;11.13;;;4.95;;
64500;SDS011;50874;24.150;-110.320;2022-08-03T06:01:36;16.80;;;5.07;;
64500;SDS011;50874;24.150;-110.320;2022-08-03T06:04:02;15.50;;;5.18;;
64500;SDS011;50874;24.150;-110.320;2022-08-03T06:06:29;17.38;;;5.30;;
64500;SDS011;50874;24.150;-110.320;2022-08-03T06:08:55;17.63;;;5.35;;
64500;SDS011;50874;24.150;-110.320;2022-08-03T06:11:21;14.63;;;5.45;;
64500;SDS011;50874;24.150;-110.320;2022-08-03T06:13:49;15.93;;;6.13;;
64500;SDS011;50874;24.150;-110.320;2022-08-03T06:16:15;15.02;;;5.07;;
64500;SDS011;50874;24.150;-110.320;2022-08-03T06:18:41;19.77;;;5.32;;
64500;SDS011;50874;24.150;-110.320;2022-08-03T06:21:08;14.43;;;4.55;;
64500;SDS011;50874;24.150;-110.320;2022-08-03T06:23:35;21.60;;;5.50;;
64500;SDS011;50874;24.150;-110.320;2022-08-03T06:26:01;16.45;;;5.15;;
64500;SDS011;50874;24.150;-110.320;2022-08-03T06:28:28;18.40;;;5.28;;
64500;SDS011;50874;24.150;-110.320;2022-08-03T06:30:55;16.92;;;6.10;;
64500;SDS011;50874;24.150;-110.320;2022-08-03T06:33:21;14.10;;;4.80;;
64500;SDS011;50874;24.150;-110.320;2022-08-03T06:35:49;13.68;;;4.85;;
64500;SDS011;50874;24.150;-110.320;2022-08-03T06:38:16;19.50;;;4.60;;
64500;SDS011;50874;24.150;-110.320;2022-08-03T06:40:42;12.73;;;4.85;;
64500;SDS011;50874;24.150;-110.320;2022-08-03T06:43:08;14.75;;;5.00;;
64500;SDS011;50874;24.150;-110.320;2022-08-03T06:45:36;18.05;;;5.68;;
64500;SDS011;50874;24.150;-110.320;2022-08-03T06:48:03;15.48;;;5.28;;
64500;SDS011;50874;24.150;-110.320;2022-08-03T06:50:32;9.98;;;4.97;;
64500;SDS011;50874;24.150;-110.320;2022-08-03T06:52:59;14.88;;;5.07;;
64500;SDS011;50874;24.150;-110.320;2022-08-03T06:55:26;12.07;;;4.60;;
64500;SDS011;50874;24.150;-110.320;2022-08-03T06:57:53;15.23;;;4.90;;
64500;SDS011;50874;24.150;-110.320;2022-08-03T07:00:20;19.48;;;5.68;;
64500;SDS011;50874;24.150;-110.320;2022-08-03T07:02:47;18.25;;;5.25;;
64500;SDS011;50874;24.150;-110.320;2022-08-03T07:05:13;20.48;;;5.43;;
64500;SDS011;50874;24.150;-110.320;2022-08-03T07:07:40;14.25;;;4.35;;
64500;SDS011;50874;24.150;-110.320;2022-08-03T07:10:07;12.77;;;4.60;;
64500;SDS011;50874;24.150;-110.320;2022-08-03T07:12:34;20.15;;;5.55;;
64500;SDS011;50874;24.150;-110.320;2022-08-03T07:15:01;14.82;;;5.30;;
64500;SDS011;50874;24.150;-110.320;2022-08-03T07:17:29;19.77;;;4.63;;
64500;SDS011;50874;24.150;-110.320;2022-08-03T07:19:57;14.85;;;4.97;;
64500;SDS011;50874;24.150;-110.320;2022-08-03T07:22:24;13.40;;;4.63;;
64500;SDS011;50874;24.150;-110.320;2022-08-03T07:24:51;18.23;;;5.35;;
64500;SDS011;50874;24.150;-110.320;2022-08-03T07:27:17;21.48;;;5.05;;
64500;SDS011;50874;24.150;-110.320;2022-08-03T07:29:44;16.48;;;5.25;;
64500;SDS011;50874;24.150;-110.320;2022-08-03T07:32:11;13.48;;;5.05;;
64500;SDS011;50874;24.150;-110.320;2022-08-03T07:34:37;16.65;;;4.75;;
64500;SDS011;50874;24.150;-110.320;2022-08-03T07:37:04;14.90;;;5.15;;
64500;SDS011;50874;24.150;-110.320;2022-08-03T07:39:30;14.55;;;5.38;;
64500;SDS011;50874;24.150;-110.320;2022-08-03T07:41:56;19.40;;;5.20;;
64500;SDS011;50874;24.150;-110.320;2022-08-03T07:44:23;16.17;;;4.85;;
64500;SDS011;50874;24.150;-110.320;2022-08-03T07:46:49;14.70;;;5.50;;
64500;SDS011;50874;24.150;-110.320;2022-08-03T07:49:16;15.85;;;5.18;;
64500;SDS011;50874;24.150;-110.320;2022-08-03T07:51:42;21.90;;;6.05;;
64500;SDS011;50874;24.150;-110.320;2022-08-03T07:54:08;19.08;;;5.60;;
64500;SDS011;50874;24.150;-110.320;2022-08-03T07:56:35;16.33;;;5.53;;
64500;SDS011;50874;24.150;-110.320;2022-08-03T07:59:02;16.75;;;5.85;;
64500;SDS011;50874;24.150;-110.320;2022-08-03T08:01:29;19.27;;;5.85;;
64500;SDS011;50874;24.150;-110.320;2022-08-03T08:03:58;16.73;;;5.38;;
64500;SDS011;50874;24.150;-110.320;2022-08-03T08:06:24;19.00;;;5.60;;
64500;SDS011;50874;24.150;-110.320;2022-08-03T08:08:51;15.90;;;5.18;;
64500;SDS011;50874;24.150;-110.320;2022-08-03T08:11:18;19.27;;;5.93;;
64500;SDS011;50874;24.150;-110.320;2022-08-03T08:13:46;16.65;;;5.32;;
64500;SDS011;50874;24.150;-110.320;2022-08-03T08:16:12;17.90;;;5.15;;
64500;SDS011;50874;24.150;-110.320;2022-08-03T08:18:39;15.85;;;5.22;;
64500;SDS011;50874;24.150;-110.320;2022-08-03T08:21:05;15.43;;;4.97;;
64500;SDS011;50874;24.150;-110.320;2022-08-03T08:23:32;14.35;;;4.93;;
64500;SDS011;50874;24.150;-110.320;2022-08-03T08:25:58;17.17;;;4.45;;
64500;SDS011;50874;24.150;-110.320;2022-08-03T08:28:24;13.23;;;4.90;;
64500;SDS011;50874;24.150;-110.320;2022-08-03T08:30:52;10.43;;;4.40;;
64500;SDS011;50874;24.150;-110.320;2022-08-03T08:33:18;13.85;;;4.53;;
64500;SDS011;50874;24.150;-110.320;2022-08-03T08:35:44;15.85;;;5.70;;
64500;SDS011;50874;24.150;-110.320;2022-08-03T08:38:11;12.25;;;4.00;;
64500;SDS011;50874;24.150;-110.320;2022-08-03T08:40:37;11.45;;;5.50;;
64500;SDS011;50874;24.150;-110.320;2022-08-03T08:43:04;18.35;;;4.97;;
64500;SDS011;50874;24.150;-110.320;2022-08-03T08:45:31;16.27;;;4.80;;
64500;SDS011;50874;24.150;-110.320;2022-08-03T08:47:58;15.25;;;5.10;;
64500;SDS011;50874;24.150;-110.320;2022-08-03T08:50:27;21.17;;;5.70;;
64500;SDS011;50874;24.150;-110.320;2022-08-03T08:52:54;18.40;;;5.63;;
64500;SDS011;50874;24.150;-110.320;2022-08-03T08:55:24;16.67;;;5.72;;
64500;SDS011;50874;24.150;-110.320;2022-08-03T08:58:04;15.38;;;4.85;;
64500;SDS011;50874;24.150;-110.320;2022-08-03T09:00:31;13.85;;;4.70;;
64500;SDS011;50874;24.150;-110.320;2022-08-03T09:02:57;11.45;;;5.22;;
64500;SDS011;50874;24.150;-110.320;2022-08-03T09:05:26;16.42;;;4.93;;
64500;SDS011;50874;24.150;-110.320;2022-08-03T09:07:57;14.43;;;4.95;;
64500;SDS011;50874;24.150;-110.320;2022-08-03T09:10:23;18.63;;;5.35;;
64500;SDS011;50874;24.150;-110.320;2022-08-03T09:12:50;11.65;;;5.10;;
64500;SDS011;50874;24.150;-110.320;2022-08-03T09:15:27;10.02;;;4.72;;
64500;SDS011;50874;24.150;-110.320;2022-08-03T09:18:01;10.05;;;4.63;;
64500;SDS011;50874;24.150;-110.320;2022-08-03T09:20:30;12.27;;;5.35;;
64500;SDS011;50874;24.150;-110.320;2022-08-03T09:23:02;19.05;;;5.15;;
64500;SDS011;50874;24.150;-110.320;2022-08-03T09:25:33;12.52;;;5.50;;
64500;SDS011;50874;24.150;-110.320;2022-08-03T09:28:13;11.90;;;4.72;;
64500;SDS011;50874;24.150;-110.320;2022-08-03T09:30:41;14.27;;;5.63;;
64500;SDS011;50874;24.150;-110.320;2022-08-03T09:33:10;11.10;;;3.97;;
64500;SDS011;50874;24.150;-110.320;2022-08-03T09:35:45;12.07;;;5.07;;
64500;SDS011;50874;24.150;-110.320;2022-08-03T09:40:41;17.10;;;5.55;;
64500;SDS011;50874;24.150;-110.320;2022-08-03T09:43:08;10.82;;;4.75;;
64500;SDS011;50874;24.150;-110.320;2022-08-03T09:45:37;15.30;;;5.63;;
64500;SDS011;50874;24.150;-110.320;2022-08-03T09:48:26;13.68;;;4.82;;
64500;SDS011;50874;24.150;-110.320;2022-08-03T09:50:56;13.25;;;5.03;;
64500;SDS011;50874;24.150;-110.320;2022-08-03T09:53:24;14.90;;;5.13;;
64500;SDS011;50874;24.150;-110.320;2022-08-03T09:55:58;13.35;;;4.75;;
64500;SDS011;50874;24.150;-110.320;2022-08-03T09:58:26;12.98;;;5.20;;
64500;SDS011;50874;24.150;-110.320;2022-08-03T10:00:58;14.05;;;4.93;;
64500;SDS011;50874;24.150;-110.320;2022-08-03T10:03:28;15.07;;;5.03;;
64500;SDS011;50874;24.150;-110.320;2022-08-03T10:06:21;16.40;;;4.78;;
64500;SDS011;50874;24.150;-110.320;2022-08-03T10:08:49;13.68;;;5.22;;
64500;SDS011;50874;24.150;-110.320;2022-08-03T10:11:34;16.83;;;5.35;;
64500;SDS011;50874;24.150;-110.320;2022-08-03T10:14:02;9.88;;;4.85;;
64500;SDS011;50874;24.150;-110.320;2022-08-03T10:16:33;12.50;;;4.63;;
64500;SDS011;50874;24.150;-110.320;2022-08-03T10:19:04;17.80;;;4.90;;
64500;SDS011;50874;24.150;-110.320;2022-08-03T10:21:37;13.65;;;5.38;;
64500;SDS011;50874;24.150;-110.320;2022-08-03T10:24:06;16.77;;;4.68;;
64500;SDS011;50874;24.150;-110.320;2022-08-03T10:26:37;13.70;;;4.80;;
64500;SDS011;50874;24.150;-110.320;2022-08-03T10:29:05;15.98;;;6.28;;
64500;SDS011;50874;24.150;-110.320;2022-08-03T10:31:41;15.60;;;5.68;;
64500;SDS011;50874;24.150;-110.320;2022-08-03T10:34:21;20.55;;;5.80;;
64500;SDS011;50874;24.150;-110.320;2022-08-03T10:36:49;14.20;;;4.60;;
64500;SDS011;50874;24.150;-110.320;2022-08-03T10:39:18;14.27;;;5.15;;
64500;SDS011;50874;24.150;-110.320;2022-08-03T10:41:48;14.20;;;5.80;;
64500;SDS011;50874;24.150;-110.320;2022-08-03T10:44:19;13.27;;;4.68;;
64500;SDS011;50874;24.150;-110.320;2022-08-03T10:46:48;12.43;;;5.15;;
64500;SDS011;50874;24.150;-110.320;2022-08-03T10:49:17;16.80;;;4.88;;
64500;SDS011;50874;24.150;-110.320;2022-08-03T10:51:45;14.68;;;5.65;;
64500;SDS011;50874;24.150;-110.320;2022-08-03T10:57:44;20.85;;;5.22;;
64500;SDS011;50874;24.150;-110.320;2022-08-03T11:00:16;13.98;;;5.82;;
64500;SDS011;50874;24.150;-110.320;2022-08-03T11:11:02;15.18;;;5.28;;
64500;SDS011;50874;24.150;-110.320;2022-08-03T11:16:32;14.70;;;5.22;;
64500;SDS011;50874;24.150;-110.320;2022-08-03T11:19:43;18.48;;;6.07;;
64500;SDS011;50874;24.150;-110.320;2022-08-03T11:22:11;18.33;;;5.63;;
64500;SDS011;50874;24.150;-110.320;2022-08-03T11:35:14;14.95;;;5.78;;
64500;SDS011;50874;24.150;-110.320;2022-08-03T11:40:48;18.27;;;5.68;;
64500;SDS011;50874;24.150;-110.320;2022-08-03T11:46:10;12.30;;;5.53;;
64500;SDS011;50874;24.150;-110.320;2022-08-03T11:48:46;14.98;;;5.30;;
64500;SDS011;50874;24.150;-110.320;2022-08-03T11:51:21;15.15;;;5.32;;
64500;SDS011;50874;24.150;-110.320;2022-08-03T11:53:54;16.88;;;6.25;;
64500;SDS011;50874;24.150;-110.320;2022-08-03T11:56:25;20.75;;;5.68;;
64500;SDS011;50874;24.150;-110.320;2022-08-03T11:58:53;12.27;;;5.18;;
64500;SDS011;50874;24.150;-110.320;2022-08-03T12:01:23;13.13;;;4.95;;
64500;SDS011;50874;24.150;-110.320;2022-08-03T12:03:50;13.18;;;4.93;;
64500;SDS011;50874;24.150;-110.320;2022-08-03T12:06:17;13.35;;;5.43;;
64500;SDS011;50874;24.150;-110.320;2022-08-03T12:08:44;11.77;;;5.10;;
64500;SDS011;50874;24.150;-110.320;2022-08-03T12:11:13;14.15;;;4.78;;
64500;SDS011;50874;24.150;-110.320;2022-08-03T12:13:44;14.55;;;5.75;;
64500;SDS011;50874;24.150;-110.320;2022-08-03T12:16:24;15.95;;;5.60;;
64500;SDS011;50874;24.150;-110.320;2022-08-03T12:21:26;14.85;;;4.85;;
64500;SDS011;50874;24.150;-110.320;2022-08-03T12:23:58;12.70;;;4.50;;
64500;SDS011;50874;24.150;-110.320;2022-08-03T12:26:29;12.95;;;4.28;;
64500;SDS011;50874;24.150;-110.320;2022-08-03T12:29:18;16.77;;;5.47;;
64500;SDS011;50874;24.150;-110.320;2022-08-03T12:31:45;13.02;;;4.60;;
64500;SDS011;50874;24.150;-110.320;2022-08-03T12:34:12;11.80;;;5.22;;
64500;SDS011;50874;24.150;-110.320;2022-08-03T12:36:48;13.48;;;4.53;;
64500;SDS011;50874;24.150;-110.320;2022-08-03T12:39:17;17.63;;;4.82;;
64500;SDS011;50874;24.150;-110.320;2022-08-03T12:41:51;14.77;;;4.78;;
64500;SDS011;50874;24.150;-110.320;2022-08-03T12:44:28;19.38;;;5.00;;
64500;SDS011;50874;24.150;-110.320;2022-08-03T12:46:59;17.33;;;5.90;;
64500;SDS011;50874;24.150;-110.320;2022-08-03T12:49:26;14.32;;;4.30;;
64500;SDS011;50874;24.150;-110.320;2022-08-03T12:54:26;13.07;;;4.57;;
64500;SDS011;50874;24.150;-110.320;2022-08-03T12:59:23;20.42;;;5.07;;
64500;SDS011;50874;24.150;-110.320;2022-08-03T13:01:51;16.23;;;5.40;;
64500;SDS011;50874;24.150;-110.320;2022-08-03T13:04:27;17.67;;;5.22;;
64500;SDS011;50874;24.150;-110.320;2022-08-03T13:06:58;21.10;;;4.75;;
64500;SDS011;50874;24.150;-110.320;2022-08-03T13:09:26;20.90;;;5.45;;
64500;SDS011;50874;24.150;-110.320;2022-08-03T13:12:09;17.40;;;5.03;;
64500;SDS011;50874;24.150;-110.320;2022-08-03T13:14:41;19.70;;;5.07;;
64500;SDS011;50874;24.150;-110.320;2022-08-03T13:17:09;11.90;;;4.10;;
64500;SDS011;50874;24.150;-110.320;2022-08-03T13:19:36;21.65;;;5.15;;
64500;SDS011;50874;24.150;-110.320;2022-08-03T13:22:13;12.63;;;4.63;;
64500;SDS011;50874;24.150;-110.320;2022-08-03T13:24:40;18.50;;;4.93;;
64500;SDS011;50874;24.150;-110.320;2022-08-03T13:27:08;24.27;;;5.88;;
64500;SDS011;50874;24.150;-110.320;2022-08-03T13:29:34;13.80;;;4.75;;
64500;SDS011;50874;24.150;-110.320;2022-08-03T13:32:01;12.20;;;3.95;;
64500;SDS011;50874;24.150;-110.320;2022-08-03T13:34:29;16.58;;;3.95;;
64500;SDS011;50874;24.150;-110.320;2022-08-03T13:36:56;17.73;;;4.20;;
64500;SDS011;50874;24.150;-110.320;2022-08-03T13:39:22;20.40;;;4.35;;
64500;SDS011;50874;24.150;-110.320;2022-08-03T13:41:49;13.45;;;4.90;;
64500;SDS011;50874;24.150;-110.320;2022-08-03T13:44:17;17.38;;;4.57;;
64500;SDS011;50874;24.150;-110.320;2022-08-03T13:46:44;15.63;;;4.15;;
64500;SDS011;50874;24.150;-110.320;2022-08-03T13:49:11;16.10;;;3.88;;
64500;SDS011;50874;24.150;-110.320;2022-08-03T13:51:39;11.43;;;3.63;;
64500;SDS011;50874;24.150;-110.320;2022-08-03T13:54:05;21.23;;;4.18;;
64500;SDS011;50874;24.150;-110.320;2022-08-03T13:56:32;12.18;;;4.25;;
64500;SDS011;50874;24.150;-110.320;2022-08-03T13:58:58;19.50;;;4.03;;
64500;SDS011;50874;24.150;-110.320;2022-08-03T14:01:25;10.07;;;3.72;;
64500;SDS011;50874;24.150;-110.320;2022-08-03T14:03:51;9.45;;;3.42;;
64500;SDS011;50874;24.150;-110.320;2022-08-03T14:06:22;20.33;;;4.40;;
64500;SDS011;50874;24.150;-110.320;2022-08-03T14:08:50;11.82;;;3.85;;
64500;SDS011;50874;24.150;-110.320;2022-08-03T14:11:16;15.02;;;4.40;;
64500;SDS011;50874;24.150;-110.320;2022-08-03T14:13:43;8.10;;;3.75;;
64500;SDS011;50874;24.150;-110.320;2022-08-03T14:16:10;9.25;;;3.38;;
64500;SDS011;50874;24.150;-110.320;2022-08-03T14:18:36;14.25;;;3.53;;
64500;SDS011;50874;24.150;-110.320;2022-08-03T14:21:03;13.40;;;3.60;;
64500;SDS011;50874;24.150;-110.320;2022-08-03T14:23:31;10.00;;;3.30;;
64500;SDS011;50874;24.150;-110.320;2022-08-03T14:25:58;15.57;;;3.95;;
64500;SDS011;50874;24.150;-110.320;2022-08-03T14:28:25;10.55;;;3.58;;
64500;SDS011;50874;24.150;-110.320;2022-08-03T14:30:52;17.10;;;4.05;;
64500;SDS011;50874;24.150;-110.320;2022-08-03T14:33:20;11.15;;;3.50;;
64500;SDS011;50874;24.150;-110.320;2022-08-03T14:35:47;10.43;;;3.33;;
64500;SDS011;50874;24.150;-110.320;2022-08-03T14:38:14;10.43;;;3.88;;
64500;SDS011;50874;24.150;-110.320;2022-08-03T14:40:41;14.00;;;3.58;;
64500;SDS011;50874;24.150;-110.320;2022-08-03T14:43:08;14.48;;;3.58;;
64500;SDS011;50874;24.150;-110.320;2022-08-03T14:45:35;12.90;;;3.50;;
64500;SDS011;50874;24.150;-110.320;2022-08-03T14:48:01;9.65;;;3.70;;
64500;SDS011;50874;24.150;-110.320;2022-08-03T14:50:29;7.70;;;3.42;;
64500;SDS011;50874;24.150;-110.320;2022-08-03T14:52:55;11.52;;;3.40;;
64500;SDS011;50874;24.150;-110.320;2022-08-03T14:55:22;10.57;;;3.95;;
64500;SDS011;50874;24.150;-110.320;2022-08-03T14:57:48;9.93;;;3.40;;
64500;SDS011;50874;24.150;-110.320;2022-08-03T15:00:15;12.60;;;3.40;;
64500;SDS011;50874;24.150;-110.320;2022-08-03T15:02:41;7.55;;;3.17;;
64500;SDS011;50874;24.150;-110.320;2022-08-03T15:05:08;7.75;;;3.25;;